createdAt,value
2022-08-08T00:01:06.684Z,100.00
2022-08-08T00:03:48.516Z,100.00
2022-08-08T00:06:50.034Z,100.00
2022-08-08T00:09:17.206Z,100.00
2022-08-08T00:12:07.063Z,100.00
2022-08-08T00:15:03.250Z,100.00
2022-08-08T00:18:02.459Z,100.00
2022-08-08T00:20:55.226Z,99.59
2022-08-08T00:23:43.165Z,99.57
2022-08-08T00:26:30.098Z,99.75
2022-08-08T00:29:17.526Z,100.00
2022-08-08T00:32:36.746Z,100.00
2022-08-08T00:35:34.225Z,100.00
2022-08-08T00:38:31.130Z,100.00
2022-08-08T00:41:14.398Z,100.00
2022-08-08T00:44:07.333Z,100.00
2022-08-08T00:46:58.299Z,100.00
2022-08-08T00:49:59.271Z,100.00
2022-08-08T00:53:15.668Z,100.00
2022-08-08T00:56:03.264Z,100.00
2022-08-08T00:58:34.618Z,100.00
2022-08-08T01:01:36.436Z,100.00
2022-08-08T01:04:53.599Z,100.00
2022-08-08T01:07:57.771Z,100.00
2022-08-08T01:11:21.918Z,100.00
2022-08-08T01:14:54.433Z,100.00
2022-08-08T01:17:19.539Z,100.00
2022-08-08T01:20:17.310Z,100.00
2022-08-08T01:24:02.742Z,100.00
2022-08-08T01:26:28.730Z,100.00
2022-08-08T01:29:13.459Z,100.00
2022-08-08T01:32:13.851Z,100.00
2022-08-08T01:34:58.424Z,100.00
2022-08-08T01:37:37.234Z,100.00
2022-08-08T01:40:17.417Z,100.00
2022-08-08T01:42:58.984Z,100.00
2022-08-08T01:45:56.179Z,100.00
2022-08-08T01:48:53.635Z,100.00
2022-08-08T01:53:07.212Z,100.00
2022-08-08T01:56:26.894Z,100.00
2022-08-08T01:58:32.243Z,100.00
2022-08-08T02:01:24.381Z,100.00
2022-08-08T02:04:12.846Z,100.00
2022-08-08T02:07:21.434Z,100.00
2022-08-08T02:10:11.435Z,100.00
2022-08-08T02:12:56.058Z,100.00
2022-08-08T02:15:39.038Z,100.00
2022-08-08T02:18:13.974Z,100.00
2022-08-08T02:21:28.574Z,100.00
2022-08-08T02:23:59.867Z,100.00
2022-08-08T02:26:34.057Z,100.00
2022-08-08T02:29:19.049Z,100.00
2022-08-08T02:32:23.063Z,100.00
2022-08-08T02:35:10.722Z,100.00
2022-08-08T02:38:25.605Z,100.00
2022-08-08T02:41:58.470Z,100.00
2022-08-08T02:44:56.348Z,100.00
2022-08-08T02:47:59.650Z,100.00
2022-08-08T02:51:04.842Z,100.00
2022-08-08T02:54:10.871Z,100.00
2022-08-08T02:57:29.370Z,100.00
2022-08-08T03:00:31.772Z,100.00
2022-08-08T03:03:46.366Z,100.00
2022-08-08T03:06:34.525Z,100.00
2022-08-08T03:09:21.517Z,100.00
2022-08-08T03:12:14.061Z,100.00
2022-08-08T03:15:59.845Z,100.00
2022-08-08T03:18:39.247Z,100.00
2022-08-08T03:21:10.130Z,100.00
2022-08-08T03:23:59.259Z,100.00
2022-08-08T03:26:42.720Z,100.00
2022-08-08T03:29:26.910Z,100.00
2022-08-08T03:32:29.088Z,100.00
2022-08-08T03:34:59.223Z,100.00
2022-08-08T03:37:59.990Z,100.00
2022-08-08T03:40:29.689Z,100.00
2022-08-08T03:43:16.165Z,100.00
2022-08-08T03:46:06.977Z,100.00
2022-08-08T03:49:09.434Z,100.00
2022-08-08T03:51:40.251Z,100.00
2022-08-08T03:54:10.107Z,100.00
2022-08-08T03:56:46.440Z,100.00
2022-08-08T03:59:22.713Z,100.00
2022-08-08T04:02:31.739Z,100.00
2022-08-08T04:04:39.971Z,100.00
2022-08-08T04:07:09.689Z,100.00
2022-08-08T04:09:58.820Z,100.00
2022-08-08T04:12:26.518Z,100.00
2022-08-08T04:14:54.725Z,100.00
2022-08-08T04:17:57.821Z,100.00
2022-08-08T04:20:11.241Z,100.00
2022-08-08T04:22:39.098Z,100.00
2022-08-08T04:25:09.057Z,98.79
2022-08-08T04:28:34.965Z,98.27
2022-08-08T04:30:36.716Z,98.49
2022-08-08T04:33:15.684Z,98.06
2022-08-08T04:35:43.918Z,97.60
2022-08-08T04:38:21.467Z,97.36
2022-08-08T04:40:54.143Z,96.95
2022-08-08T04:43:31.710Z,96.00
2022-08-08T04:46:14.755Z,95.73
2022-08-08T04:48:43.895Z,96.48
2022-08-08T04:51:12.115Z,96.50
2022-08-08T04:54:26.751Z,96.74
2022-08-08T04:56:32.490Z,96.65
2022-08-08T04:59:02.181Z,96.07
2022-08-08T05:01:35.587Z,95.48
2022-08-08T05:04:16.462Z,94.51
2022-08-08T05:06:45.706Z,94.87
2022-08-08T05:09:13.202Z,94.97
2022-08-08T05:11:47.772Z,94.46
2022-08-08T05:14:25.414Z,93.37
2022-08-08T05:17:01.146Z,92.52
2022-08-08T05:20:10.531Z,92.28
2022-08-08T05:22:31.793Z,91.93
2022-08-08T05:25:00.948Z,91.81
2022-08-08T05:27:33.125Z,90.80
2022-08-08T05:30:03.643Z,90.12
2022-08-08T05:32:53.649Z,89.25
2022-08-08T05:35:26.498Z,89.13
2022-08-08T05:38:31.459Z,89.02
2022-08-08T05:40:59.069Z,89.77
2022-08-08T05:44:02.939Z,89.82
2022-08-08T05:46:24.439Z,88.50
2022-08-08T05:48:54.734Z,88.49
2022-08-08T05:51:26.309Z,87.76
2022-08-08T05:54:28.775Z,88.19
2022-08-08T05:56:47.288Z,87.72
2022-08-08T06:00:01.248Z,86.83
2022-08-08T06:02:40.792Z,86.21
2022-08-08T06:05:34.691Z,85.74
2022-08-08T06:08:09.611Z,85.92
2022-08-08T06:10:41.143Z,85.75
2022-08-08T06:13:12.426Z,85.51
2022-08-08T06:15:50.602Z,84.39
2022-08-08T06:18:25.967Z,83.46
2022-08-08T06:20:56.584Z,82.65
2022-08-08T06:23:48.547Z,82.68
2022-08-08T06:26:38.855Z,83.33
2022-08-08T06:29:26.779Z,82.90
2022-08-08T06:32:09.882Z,81.82
2022-08-08T06:34:39.786Z,80.28
2022-08-08T06:37:24.264Z,80.02
2022-08-08T06:40:00.700Z,79.29
2022-08-08T06:42:38.155Z,78.84
2022-08-08T06:45:07.888Z,79.37
2022-08-08T06:47:52.657Z,78.63
2022-08-08T06:50:31.417Z,77.87
2022-08-08T06:53:09.453Z,78.62
2022-08-08T06:55:41.697Z,77.66
2022-08-08T06:58:11.164Z,77.21
2022-08-08T07:00:43.295Z,77.20
2022-08-08T07:04:35.708Z,77.33
2022-08-08T07:06:17.336Z,76.73
2022-08-08T07:08:47.667Z,76.08
2022-08-08T07:11:46.115Z,74.40
2022-08-08T07:14:21.580Z,75.19
2022-08-08T07:16:58.595Z,73.83
2022-08-08T07:19:44.666Z,74.46
2022-08-08T07:22:19.287Z,73.92
2022-08-08T07:25:02.459Z,73.25
2022-08-08T07:28:01.737Z,72.89
2022-08-08T07:30:33.566Z,72.25
2022-08-08T07:33:01.543Z,72.21
2022-08-08T07:35:35.584Z,72.53
2022-08-08T07:38:18.407Z,72.15
2022-08-08T07:40:59.955Z,71.55
2022-08-08T07:43:37.177Z,70.59
2022-08-08T07:46:23.960Z,70.50
2022-08-08T07:49:01.129Z,69.01
2022-08-08T07:51:44.913Z,68.91
2022-08-08T07:54:33.379Z,68.47
2022-08-08T07:57:11.542Z,67.26
2022-08-08T08:00:01.759Z,66.32
2022-08-08T08:02:55.623Z,66.41
2022-08-08T08:05:33.671Z,66.92
2022-08-08T08:08:20.620Z,66.93
2022-08-08T08:10:55.366Z,67.57
2022-08-08T08:14:06.042Z,67.87
2022-08-08T08:16:26.798Z,66.28
2022-08-08T08:19:02.824Z,67.40
2022-08-08T08:21:52.487Z,67.01
2022-08-08T08:24:36.665Z,66.96
2022-08-08T08:27:08.403Z,66.76
2022-08-08T08:29:39.090Z,65.74
2022-08-08T08:32:09.114Z,65.56
2022-08-08T08:34:43.469Z,65.96
2022-08-08T08:37:20.430Z,65.01
2022-08-08T08:40:01.087Z,65.40
2022-08-08T08:42:36.275Z,65.94
2022-08-08T08:45:10.126Z,65.76
2022-08-08T08:47:54.453Z,65.57
2022-08-08T08:50:33.440Z,65.23
2022-08-08T08:53:28.370Z,63.68
2022-08-08T08:56:02.793Z,63.43
2022-08-08T08:58:37.975Z,63.79
2022-08-08T09:01:10.131Z,62.96
2022-08-08T09:03:45.946Z,63.20
2022-08-08T09:06:33.203Z,63.29
2022-08-08T09:09:26.230Z,63.06
2022-08-08T09:12:19.990Z,62.42
2022-08-08T09:14:51.644Z,62.38
2022-08-08T09:17:41.213Z,61.93
2022-08-08T09:21:56.001Z,61.25
2022-08-08T09:23:04.931Z,60.62
2022-08-08T09:26:00.729Z,60.93
2022-08-08T09:28:37.929Z,60.92
2022-08-08T09:31:56.035Z,59.17
2022-08-08T09:34:34.709Z,59.53
2022-08-08T09:37:58.370Z,59.45
2022-08-08T09:40:11.423Z,59.62
2022-08-08T09:42:51.905Z,58.69
2022-08-08T09:45:54.676Z,57.67
2022-08-08T09:48:38.895Z,57.25
2022-08-08T09:51:10.132Z,57.07
2022-08-08T09:53:56.540Z,57.30
2022-08-08T09:56:40.079Z,57.96
2022-08-08T09:59:42.682Z,57.11
2022-08-08T10:02:12.370Z,57.07
2022-08-08T10:04:47.267Z,56.83
2022-08-08T10:07:17.347Z,56.66
2022-08-08T10:09:59.798Z,55.41
2022-08-08T10:12:53.060Z,54.50
2022-08-08T10:15:27.035Z,54.01
2022-08-08T10:18:07.503Z,53.05
2022-08-08T10:20:57.912Z,52.88
2022-08-08T10:23:44.166Z,52.65
2022-08-08T10:26:40.567Z,53.33
2022-08-08T10:29:22.819Z,50.91
2022-08-08T10:32:16.419Z,51.77
2022-08-08T10:34:58.561Z,51.60
2022-08-08T10:37:35.448Z,50.18
2022-08-08T10:40:16.288Z,48.67
2022-08-08T10:42:45.746Z,48.95
2022-08-08T10:45:16.106Z,49.77
2022-08-08T10:47:55.478Z,49.23
2022-08-08T10:50:32.130Z,48.78
2022-08-08T10:53:12.491Z,47.72
2022-08-08T10:55:46.420Z,47.37
2022-08-08T10:58:15.656Z,46.81
2022-08-08T11:00:53.507Z,45.89
2022-08-08T11:04:00.810Z,45.41
2022-08-08T11:06:35.400Z,44.55
2022-08-08T11:09:19.925Z,43.17
2022-08-08T11:12:05.702Z,42.64
2022-08-08T11:14:57.327Z,43.36
2022-08-08T11:17:59.741Z,42.09
2022-08-08T11:20:25.050Z,41.32
2022-08-08T11:23:05.227Z,41.84
2022-08-08T11:25:53.256Z,42.55
2022-08-08T11:28:29.501Z,41.54
2022-08-08T11:31:01.026Z,40.87
2022-08-08T11:33:52.775Z,40.77
2022-08-08T11:36:27.917Z,40.38
2022-08-08T11:38:56.665Z,39.69
2022-08-08T11:41:28.069Z,39.82
2022-08-08T11:44:00.951Z,39.76
2022-08-08T11:46:31.515Z,40.39
2022-08-08T11:49:05.143Z,39.92
2022-08-08T11:51:38.333Z,40.27
2022-08-08T11:54:27.342Z,41.01
2022-08-08T11:57:13.844Z,40.05
2022-08-08T12:00:02.261Z,40.40
2022-08-08T12:02:52.207Z,39.28
2022-08-08T12:05:30.805Z,38.58
2022-08-08T12:08:01.924Z,38.88
2022-08-08T12:10:33.613Z,38.44
2022-08-08T12:13:05.104Z,37.24
2022-08-08T12:15:51.654Z,36.41
2022-08-08T12:18:27.812Z,35.96
2022-08-08T12:20:59.457Z,35.94
2022-08-08T12:23:43.879Z,35.23
2022-08-08T12:26:28.567Z,33.82
2022-08-08T12:29:22.119Z,34.36
2022-08-08T12:32:05.403Z,34.57
2022-08-08T12:34:42.997Z,33.77
2022-08-08T12:37:18.811Z,31.54
2022-08-08T12:40:00.387Z,31.04
2022-08-08T12:42:33.610Z,31.39
2022-08-08T12:45:59.228Z,32.97
2022-08-08T12:48:09.726Z,32.89
2022-08-08T12:50:57.577Z,30.73
2022-08-08T12:53:37.750Z,31.29
2022-08-08T12:56:19.796Z,31.53
2022-08-08T12:58:54.441Z,31.65
2022-08-08T13:01:36.920Z,32.04
2022-08-08T13:04:18.296Z,31.38
2022-08-08T13:07:00.619Z,30.86
2022-08-08T13:09:43.075Z,29.71
2022-08-08T13:12:29.530Z,29.74
2022-08-08T13:15:00.779Z,30.76
2022-08-08T13:18:09.284Z,30.68
2022-08-08T13:20:20.996Z,30.74
2022-08-08T13:22:48.678Z,30.84
2022-08-08T13:25:22.097Z,31.26
2022-08-08T13:27:54.465Z,31.13
2022-08-08T13:30:26.766Z,30.94
2022-08-08T13:32:57.770Z,31.21
2022-08-08T13:35:38.696Z,31.03
2022-08-08T13:38:13.374Z,31.42
2022-08-08T13:40:44.996Z,30.83
2022-08-08T13:43:16.050Z,30.52
2022-08-08T13:45:47.587Z,30.18
2022-08-08T13:48:19.737Z,29.70
2022-08-08T13:50:57.566Z,29.47
2022-08-08T13:53:53.242Z,29.54
2022-08-08T13:56:44.525Z,29.06
2022-08-08T13:59:12.585Z,29.44
2022-08-08T14:01:56.734Z,29.06
2022-08-08T14:04:27.643Z,28.87
2022-08-08T14:07:04.187Z,28.73
2022-08-08T14:10:04.808Z,28.36
2022-08-08T14:12:30.585Z,28.62
2022-08-08T14:14:58.899Z,29.10
2022-08-08T14:17:59.329Z,29.54
2022-08-08T14:20:14.846Z,29.16
2022-08-08T14:23:10.257Z,28.26
2022-08-08T14:25:56.666Z,29.03
2022-08-08T14:28:28.994Z,28.63
2022-08-08T14:31:09.351Z,28.55
2022-08-08T14:33:37.361Z,28.93
2022-08-08T14:36:06.169Z,28.70
2022-08-08T14:38:52.801Z,28.77
2022-08-08T14:41:53.141Z,28.65
2022-08-08T14:44:21.026Z,28.64
2022-08-08T14:47:00.275Z,28.80
2022-08-08T14:49:51.445Z,29.01
2022-08-08T14:52:23.181Z,29.33
2022-08-08T14:54:50.783Z,29.07
2022-08-08T14:57:17.884Z,29.25
2022-08-08T14:59:51.515Z,29.58
2022-08-08T15:02:25.338Z,29.14
2022-08-08T15:04:53.230Z,29.37
2022-08-08T15:07:22.548Z,29.54
2022-08-08T15:09:52.981Z,29.94
2022-08-08T15:12:27.136Z,29.36
2022-08-08T15:14:55.607Z,29.96
2022-08-08T15:17:23.382Z,30.73
2022-08-08T15:19:51.685Z,31.69
2022-08-08T15:22:23.538Z,32.19
2022-08-08T15:24:52.132Z,32.20
2022-08-08T15:27:57.751Z,31.98
2022-08-08T15:30:12.386Z,32.61
2022-08-08T15:32:43.344Z,32.54
2022-08-08T15:35:11.604Z,32.65
2022-08-08T15:37:43.635Z,32.92
2022-08-08T15:40:15.294Z,33.05
2022-08-08T15:42:47.375Z,32.83
2022-08-08T15:45:14.814Z,32.94
2022-08-08T15:48:05.469Z,33.19
2022-08-08T15:50:52.363Z,34.00
2022-08-08T15:53:20.922Z,33.52
2022-08-08T15:55:50.382Z,34.33
2022-08-08T15:58:20.403Z,34.23
2022-08-08T16:00:58.783Z,34.79
2022-08-08T16:03:26.134Z,34.98
2022-08-08T16:06:01.594Z,34.83
2022-08-08T16:08:29.819Z,35.19
2022-08-08T16:13:02.254Z,35.46
2022-08-08T16:13:49.324Z,35.31
2022-08-08T16:16:22.149Z,35.25
2022-08-08T16:18:56.910Z,35.94
2022-08-08T16:21:31.477Z,36.22
2022-08-08T16:24:06.736Z,36.51
2022-08-08T16:26:40.053Z,36.23
2022-08-08T16:29:15.468Z,36.42
2022-08-08T16:31:49.490Z,37.07
2022-08-08T16:34:20.782Z,37.26
2022-08-08T16:36:50.304Z,37.52
2022-08-08T16:40:00.758Z,36.74
2022-08-08T16:42:06.696Z,36.85
2022-08-08T16:44:41.487Z,36.95
2022-08-08T16:47:40.608Z,36.83
2022-08-08T16:50:14.775Z,37.68
2022-08-08T16:55:00.525Z,37.61
2022-08-08T16:55:53.745Z,37.21
2022-08-08T16:58:25.723Z,37.42
2022-08-08T17:00:55.121Z,37.05
2022-08-08T17:03:24.731Z,37.54
2022-08-08T17:06:02.814Z,37.54
2022-08-08T17:08:30.180Z,38.01
2022-08-08T17:11:10.180Z,37.74
2022-08-08T17:13:49.919Z,37.70
2022-08-08T17:16:26.554Z,37.73
2022-08-08T17:18:58.457Z,37.64
2022-08-08T17:21:41.397Z,37.97
2022-08-08T17:24:21.993Z,38.27
2022-08-08T17:26:57.755Z,38.55
2022-08-08T17:29:33.643Z,38.80
2022-08-08T17:32:02.995Z,38.87
2022-08-08T17:34:54.460Z,39.23
2022-08-08T17:37:23.078Z,39.48
2022-08-08T17:40:10.986Z,39.70
2022-08-08T17:42:41.201Z,39.90
2022-08-08T17:45:22.117Z,40.01
2022-08-08T17:47:51.614Z,40.95
2022-08-08T17:50:18.772Z,40.94
2022-08-08T17:52:47.843Z,40.96
2022-08-08T17:56:04.662Z,40.83
2022-08-08T17:58:03.171Z,41.30
2022-08-08T18:00:31.382Z,41.33
2022-08-08T18:03:08.019Z,41.54
2022-08-08T18:05:48.443Z,41.56
2022-08-08T18:08:24.838Z,41.87
2022-08-08T18:11:09.236Z,41.93
2022-08-08T18:13:41.452Z,42.34
2022-08-08T18:16:10.482Z,42.48
2022-08-08T18:18:42.858Z,42.55
2022-08-08T18:21:35.317Z,43.00
2022-08-08T18:24:01.752Z,43.02
2022-08-08T18:26:29.613Z,43.27
2022-08-08T18:28:57.738Z,43.13
2022-08-08T18:31:27.698Z,42.98
2022-08-08T18:34:25.769Z,43.02
2022-08-08T18:36:44.298Z,43.40
2022-08-08T18:39:16.325Z,43.32
2022-08-08T18:41:51.390Z,43.54
2022-08-08T18:44:28.865Z,43.47
2022-08-08T18:46:57.967Z,43.77
2022-08-08T18:49:32.291Z,43.46
2022-08-08T18:52:22.222Z,44.15
2022-08-08T18:55:00.258Z,44.17
2022-08-08T18:57:44.678Z,44.58
2022-08-08T19:00:20.783Z,44.96
2022-08-08T19:02:55.205Z,45.36
2022-08-08T19:05:32.421Z,45.52
2022-08-08T19:08:25.547Z,45.54
2022-08-08T19:10:58.777Z,45.42
2022-08-08T19:13:52.949Z,45.69
2022-08-08T19:16:19.269Z,45.10
2022-08-08T19:19:01.950Z,45.59
2022-08-08T19:21:32.992Z,45.93
2022-08-08T19:24:05.825Z,45.85
2022-08-08T19:26:35.566Z,45.42
2022-08-08T19:29:06.855Z,46.29
2022-08-08T19:31:35.196Z,46.82
2022-08-08T19:34:36.510Z,47.10
2022-08-08T19:36:55.463Z,47.65
2022-08-08T19:39:34.826Z,47.99
2022-08-08T19:42:04.695Z,48.19
2022-08-08T19:44:45.393Z,48.31
2022-08-08T19:47:15.826Z,48.89
2022-08-08T19:50:00.424Z,49.31
2022-08-08T19:52:36.658Z,49.82
2022-08-08T19:55:11.459Z,49.43
2022-08-08T19:57:45.380Z,49.61
2022-08-08T20:00:29.244Z,49.34
2022-08-08T20:03:01.931Z,49.30
2022-08-08T20:06:14.086Z,49.56
2022-08-08T20:08:40.105Z,50.15
2022-08-08T20:11:12.072Z,50.56
2022-08-08T20:14:31.855Z,50.85
2022-08-08T20:16:29.551Z,51.54
2022-08-08T20:18:58.099Z,51.67
2022-08-08T20:21:26.338Z,52.24
2022-08-08T20:23:58.097Z,52.95
2022-08-08T20:26:33.594Z,53.63
2022-08-08T20:29:04.345Z,53.08
2022-08-08T20:32:07.216Z,54.02
2022-08-08T20:34:30.308Z,54.34
2022-08-08T20:37:00.919Z,54.26
2022-08-08T20:39:39.441Z,54.50
2022-08-08T20:42:28.629Z,54.81
2022-08-08T20:44:58.121Z,54.88
2022-08-08T20:47:26.087Z,55.91
2022-08-08T20:49:54.567Z,56.25
2022-08-08T20:52:27.976Z,56.68
2022-08-08T20:54:57.223Z,57.07
2022-08-08T20:57:26.937Z,57.27
2022-08-08T20:59:56.190Z,57.67
2022-08-08T21:02:26.019Z,58.11
2022-08-08T21:05:00.788Z,58.10
2022-08-08T21:08:07.788Z,58.79
2022-08-08T21:10:20.924Z,59.40
2022-08-08T21:12:54.526Z,59.66
2022-08-08T21:16:05.372Z,60.04
2022-08-08T21:18:11.642Z,61.11
2022-08-08T21:20:42.041Z,61.04
2022-08-08T21:23:13.064Z,61.61
2022-08-08T21:25:45.853Z,62.42
2022-08-08T21:28:19.334Z,63.06
2022-08-08T21:31:21.903Z,63.45
2022-08-08T21:33:48.366Z,64.11
2022-08-08T21:36:28.851Z,64.41
2022-08-08T21:38:58.137Z,64.24
2022-08-08T21:41:38.185Z,64.05
2022-08-08T21:44:11.578Z,64.12
2022-08-08T21:48:04.713Z,65.23
2022-08-08T21:49:29.996Z,65.43
2022-08-08T21:54:20.237Z,65.85
2022-08-08T21:55:02.423Z,66.51
2022-08-08T21:57:43.063Z,66.41
2022-08-08T22:00:25.851Z,66.95
2022-08-08T22:02:53.771Z,67.18
2022-08-08T22:05:21.429Z,66.91
2022-08-08T22:07:49.196Z,67.02
2022-08-08T22:10:32.395Z,67.11
2022-08-08T22:13:18.603Z,67.08
2022-08-08T22:15:59.721Z,67.27
2022-08-08T22:18:33.493Z,67.77
2022-08-08T22:21:14.424Z,67.30
2022-08-08T22:23:50.493Z,68.37
2022-08-08T22:26:29.681Z,68.79
2022-08-08T22:29:13.589Z,69.99
2022-08-08T22:31:58.407Z,70.14
2022-08-08T22:34:32.226Z,70.54
2022-08-08T22:37:00.455Z,71.19
2022-08-08T22:39:45.552Z,71.04
2022-08-08T22:42:27.019Z,71.17
2022-08-08T22:44:55.689Z,71.75
2022-08-08T22:47:23.665Z,71.96
2022-08-08T22:50:02.872Z,72.28
2022-08-08T22:52:33.337Z,71.16
2022-08-08T22:55:04.799Z,71.86
2022-08-08T22:57:44.092Z,69.15
2022-08-08T23:00:18.065Z,68.27
2022-08-08T23:02:50.177Z,68.06
2022-08-08T23:05:21.561Z,66.69
2022-08-08T23:07:57.780Z,67.09
2022-08-08T23:10:27.626Z,67.41
2022-08-08T23:12:55.169Z,68.15
2022-08-08T23:16:38.762Z,67.95
2022-08-08T23:18:12.526Z,68.11
2022-08-08T23:20:44.258Z,67.80
2022-08-08T23:23:12.497Z,67.58
2022-08-08T23:25:48.538Z,68.00
2022-08-08T23:28:18.648Z,68.46
2022-08-08T23:30:47.433Z,68.40
2022-08-08T23:33:19.238Z,67.99
2022-08-08T23:36:07.921Z,67.89
2022-08-08T23:38:36.731Z,68.93
2022-08-08T23:41:17.398Z,69.16
2022-08-08T23:43:56.626Z,69.98
2022-08-08T23:49:01.122Z,70.03
2022-08-08T23:49:18.073Z,71.02
2022-08-08T23:52:07.236Z,71.20
2022-08-08T23:54:41.978Z,70.58
2022-08-08T23:57:26.345Z,70.69
